createdAt,value
2019-05-09T00:04:39.902Z,12.58
2019-05-09T00:09:45.387Z,12.41
2019-05-09T00:14:50.802Z,12.26
2019-05-09T00:19:58.442Z,12.13
2019-05-09T00:25:03.993Z,12.00
2019-05-09T00:30:09.802Z,11.92
2019-05-09T00:35:46.299Z,11.86
2019-05-09T00:40:58.391Z,11.83
2019-05-09T00:46:18.125Z,11.83
2019-05-09T00:51:23.589Z,11.86
2019-05-09T00:56:29.011Z,11.89
2019-05-09T01:01:34.556Z,11.87
2019-05-09T01:06:40.054Z,11.83
2019-05-09T01:11:45.469Z,11.74
2019-05-09T01:16:50.888Z,11.62
2019-05-09T01:21:56.518Z,11.52
2019-05-09T01:27:03.638Z,11.46
2019-05-09T01:32:16.326Z,11.44
2019-05-09T01:37:23.717Z,11.49
2019-05-09T01:42:28.871Z,11.57
2019-05-09T01:47:34.440Z,11.64
2019-05-09T01:52:40.122Z,11.73
2019-05-09T01:57:47.811Z,11.80
2019-05-09T02:02:54.074Z,11.84
2019-05-09T02:07:59.656Z,11.90
2019-05-09T02:13:05.266Z,11.97
2019-05-09T02:18:16.833Z,12.01
2019-05-09T02:23:23.334Z,12.03
2019-05-09T02:28:29.109Z,11.99
2019-05-09T02:33:34.903Z,11.90
2019-05-09T02:38:40.591Z,11.77
2019-05-09T02:43:49.273Z,11.66
2019-05-09T02:48:53.124Z,11.56
2019-05-09T02:53:58.886Z,11.42
2019-05-09T02:59:11.619Z,11.29
2019-05-09T03:04:18.900Z,11.24
2019-05-09T03:09:24.290Z,11.28
2019-05-09T03:14:29.740Z,11.35
2019-05-09T03:19:38.413Z,11.46
2019-05-09T03:24:42.427Z,11.53
2019-05-09T03:29:51.968Z,11.62
2019-05-09T03:34:58.081Z,11.72
2019-05-09T03:40:03.568Z,11.76
2019-05-09T03:45:10.641Z,11.80
2019-05-09T03:50:17.984Z,11.85
2019-05-09T03:55:30.633Z,11.88
2019-05-09T04:00:37.569Z,11.90
2019-05-09T04:05:55.328Z,11.84
2019-05-09T04:10:51.816Z,11.81
2019-05-09T04:15:58.252Z,11.85
2019-05-09T04:21:04.172Z,11.94
2019-05-09T04:26:19.289Z,12.05
2019-05-09T04:31:24.760Z,12.18
2019-05-09T04:36:38.963Z,12.27
2019-05-09T04:41:44.395Z,12.29
2019-05-09T04:46:54.127Z,12.36
2019-05-09T04:51:58.381Z,12.50
2019-05-09T04:57:03.961Z,12.66
2019-05-09T05:02:34.484Z,12.90
2019-05-09T05:07:39.923Z,13.19
2019-05-09T05:12:45.426Z,13.46
2019-05-09T05:17:50.883Z,13.78
2019-05-09T05:23:02.055Z,14.12
2019-05-09T05:28:08.558Z,14.62
2019-05-09T05:33:33.161Z,16.20
2019-05-09T05:38:38.772Z,18.75
2019-05-09T05:43:44.891Z,21.22
2019-05-09T05:48:51.943Z,23.24
2019-05-09T05:53:57.498Z,22.82
2019-05-09T05:59:03.098Z,22.86
2019-05-09T06:04:08.557Z,24.43
2019-05-09T06:09:13.963Z,25.03
2019-05-09T06:14:19.420Z,26.13
2019-05-09T06:19:25.233Z,27.48
2019-05-09T06:24:30.702Z,29.19
2019-05-09T06:29:38.573Z,29.75
2019-05-09T06:34:43.916Z,29.67
2019-05-09T06:39:49.635Z,27.81
2019-05-09T06:45:07.587Z,28.64
2019-05-09T06:50:14.928Z,30.76
2019-05-09T06:55:20.627Z,32.84
2019-05-09T07:00:45.008Z,33.98
2019-05-09T07:06:02.391Z,32.57
2019-05-09T07:11:08.175Z,29.79
2019-05-09T07:16:13.596Z,27.72
2019-05-09T07:21:19.157Z,25.93
2019-05-09T07:26:30.022Z,24.26
2019-05-09T07:31:47.976Z,22.97
2019-05-09T07:36:53.250Z,22.30
2019-05-09T07:41:58.884Z,22.05
2019-05-09T07:47:07.605Z,22.22
2019-05-09T07:52:13.235Z,22.55
2019-05-09T07:57:18.882Z,22.86
2019-05-09T08:02:24.388Z,22.63
2019-05-09T08:07:29.881Z,21.71
2019-05-09T08:12:35.295Z,20.82
2019-05-09T08:17:40.873Z,20.30
2019-05-09T08:22:57.327Z,19.87
2019-05-09T08:27:53.620Z,19.17
2019-05-09T08:33:00.050Z,18.68
2019-05-09T08:38:08.285Z,18.43
2019-05-09T08:43:12.877Z,18.33
2019-05-09T08:48:18.478Z,18.13
2019-05-09T08:53:23.905Z,18.02
2019-05-09T08:58:29.530Z,18.05
2019-05-09T09:03:35.021Z,18.12
2019-05-09T09:08:40.461Z,18.32
2019-05-09T09:13:48.108Z,18.39
2019-05-09T09:18:53.219Z,18.33
2019-05-09T09:23:58.720Z,18.47
2019-05-09T09:29:04.209Z,18.80
2019-05-09T09:34:09.650Z,18.94
2019-05-09T09:39:15.098Z,19.27
2019-05-09T09:44:22.443Z,19.10
2019-05-09T09:49:29.390Z,18.59
2019-05-09T09:54:35.118Z,18.27
2019-05-09T09:59:48.470Z,18.12
2019-05-09T10:04:53.686Z,18.18
2019-05-09T10:09:59.104Z,18.19
2019-05-09T10:15:11.585Z,18.32
2019-05-09T10:20:21.874Z,18.95
2019-05-09T10:25:27.663Z,19.35
2019-05-09T10:30:34.865Z,19.60
2019-05-09T10:35:40.317Z,19.96
2019-05-09T10:40:48.298Z,20.14
2019-05-09T10:46:10.051Z,20.25
2019-05-09T10:51:15.532Z,20.68
2019-05-09T10:56:20.966Z,21.28
2019-05-09T11:01:29.197Z,22.03
2019-05-09T11:06:33.585Z,22.33
2019-05-09T11:11:39.257Z,22.03
2019-05-09T11:16:49.097Z,21.79
2019-05-09T11:21:51.959Z,21.50
2019-05-09T11:26:58.878Z,21.16
2019-05-09T11:32:04.462Z,20.95
2019-05-09T11:37:09.985Z,20.72
2019-05-09T11:42:17.709Z,20.96
2019-05-09T11:47:33.700Z,21.63
2019-05-09T11:52:31.717Z,22.38
2019-05-09T11:57:38.517Z,22.95
2019-05-09T12:02:44.102Z,23.35
2019-05-09T12:07:49.495Z,23.67
2019-05-09T12:12:57.468Z,23.41
2019-05-09T12:18:08.383Z,22.87
2019-05-09T12:23:09.291Z,22.59
2019-05-09T12:28:14.760Z,22.53
2019-05-09T12:33:20.306Z,22.52
2019-05-09T12:38:27.772Z,22.50
2019-05-09T12:43:33.436Z,22.01
2019-05-09T12:48:39.082Z,21.42
2019-05-09T12:53:44.675Z,20.80
2019-05-09T12:58:50.166Z,20.51
2019-05-09T13:03:58.057Z,20.32
2019-05-09T13:09:02.859Z,20.36
2019-05-09T13:14:09.957Z,20.56
2019-05-09T13:19:18.505Z,21.01
2019-05-09T13:24:24.231Z,21.36
2019-05-09T13:29:29.743Z,21.69
2019-05-09T13:34:37.819Z,21.84
2019-05-09T13:39:42.380Z,21.89
2019-05-09T13:44:47.818Z,22.10
2019-05-09T13:49:55.947Z,22.11
2019-05-09T13:55:00.722Z,22.18
2019-05-09T14:00:08.706Z,21.87
2019-05-09T14:05:13.462Z,21.32
2019-05-09T14:10:18.918Z,20.79
2019-05-09T14:15:24.343Z,20.36
2019-05-09T14:20:29.780Z,20.16
2019-05-09T14:25:37.911Z,20.33
2019-05-09T14:30:42.396Z,20.65
2019-05-09T14:35:47.965Z,20.99
2019-05-09T14:40:53.478Z,21.39
2019-05-09T14:45:58.939Z,21.65
2019-05-09T14:51:04.429Z,21.76
2019-05-09T14:56:09.902Z,21.86
2019-05-09T15:01:15.310Z,21.95
2019-05-09T15:06:20.729Z,21.85
2019-05-09T15:11:28.224Z,21.66
2019-05-09T15:16:33.971Z,21.73
2019-05-09T15:21:39.634Z,22.03
2019-05-09T15:26:45.101Z,22.28
2019-05-09T15:31:54.123Z,22.15
2019-05-09T15:36:58.331Z,21.85
2019-05-09T15:42:04.281Z,21.46
2019-05-09T15:47:18.201Z,20.96
2019-05-09T15:52:23.499Z,20.60
2019-05-09T15:57:29.034Z,20.40
2019-05-09T16:02:34.481Z,20.31
2019-05-09T16:07:40.101Z,20.12
2019-05-09T16:12:45.539Z,20.10
2019-05-09T16:17:51.119Z,20.16
2019-05-09T16:22:57.278Z,20.25
2019-05-09T16:28:02.759Z,20.25
2019-05-09T16:33:08.319Z,20.11
2019-05-09T16:38:13.783Z,19.94
2019-05-09T16:43:19.211Z,19.90
2019-05-09T16:48:24.640Z,19.93
2019-05-09T16:53:30.050Z,20.02
2019-05-09T16:58:37.431Z,20.10
2019-05-09T17:03:42.762Z,20.10
2019-05-09T17:08:48.374Z,20.05
2019-05-09T17:13:53.931Z,20.11
2019-05-09T17:18:59.357Z,20.21
2019-05-09T17:24:08.119Z,20.29
2019-05-09T17:29:13.313Z,20.39
2019-05-09T17:34:18.729Z,20.38
2019-05-09T17:39:24.167Z,20.25
2019-05-09T17:44:29.638Z,20.03
2019-05-09T17:49:37.345Z,19.83
2019-05-09T17:54:42.202Z,19.71
2019-05-09T17:59:48.762Z,19.59
2019-05-09T18:04:54.681Z,19.48
2019-05-09T18:10:00.120Z,19.32
2019-05-09T18:15:07.682Z,19.17
2019-05-09T18:20:12.951Z,19.03
2019-05-09T18:25:18.859Z,18.92
2019-05-09T18:30:24.320Z,18.66
2019-05-09T18:35:31.041Z,18.23
2019-05-09T18:40:36.667Z,17.83
2019-05-09T18:45:42.137Z,17.44
2019-05-09T18:50:47.671Z,17.08
2019-05-09T18:55:53.109Z,16.72
2019-05-09T19:00:58.541Z,16.44
2019-05-09T19:06:03.974Z,16.16
2019-05-09T19:11:09.431Z,15.96
2019-05-09T19:16:39.033Z,15.76
2019-05-09T19:21:47.862Z,15.60
2019-05-09T19:26:53.341Z,15.52
2019-05-09T19:31:58.841Z,15.43
2019-05-09T19:37:04.304Z,15.33
2019-05-09T19:42:09.876Z,15.20
2019-05-09T19:47:15.326Z,15.08
2019-05-09T19:52:21.128Z,14.99
2019-05-09T19:57:26.973Z,14.91
2019-05-09T20:02:32.547Z,14.79
2019-05-09T20:07:37.945Z,14.70
2019-05-09T20:12:49.087Z,14.55
2019-05-09T20:17:54.693Z,14.36
2019-05-09T20:23:00.262Z,14.25
2019-05-09T20:28:08.657Z,14.29
2019-05-09T20:33:14.171Z,14.37
2019-05-09T20:38:19.766Z,14.45
2019-05-09T20:43:25.449Z,14.55
2019-05-09T20:48:31.093Z,14.66
2019-05-09T20:53:36.726Z,14.69
2019-05-09T20:58:42.398Z,14.72
2019-05-09T21:03:59.746Z,14.76
2019-05-09T21:08:55.376Z,14.79
2019-05-09T21:14:01.011Z,14.83
2019-05-09T21:19:06.897Z,14.87
2019-05-09T21:24:12.516Z,14.93
2019-05-09T21:29:18.167Z,14.97
2019-05-09T21:34:23.797Z,14.98
2019-05-09T21:39:29.316Z,14.97
2019-05-09T21:44:34.736Z,14.95
2019-05-09T21:49:40.169Z,14.92
2019-05-09T21:54:45.579Z,14.89
2019-05-09T21:59:51.164Z,14.90
2019-05-09T22:04:56.615Z,14.85
2019-05-09T22:10:02.120Z,14.83
2019-05-09T22:15:07.541Z,14.80
2019-05-09T22:20:13.054Z,14.77
2019-05-09T22:25:18.838Z,14.71
2019-05-09T22:30:24.238Z,14.65
2019-05-09T22:35:29.682Z,14.60
2019-05-09T22:40:35.129Z,14.58
2019-05-09T22:45:40.632Z,14.51
2019-05-09T22:50:46.078Z,14.42
2019-05-09T22:55:51.825Z,14.26
2019-05-09T23:00:57.324Z,14.06
2019-05-09T23:06:03.062Z,13.85
2019-05-09T23:11:08.536Z,13.65
2019-05-09T23:16:14.153Z,13.47
2019-05-09T23:21:19.641Z,13.27
2019-05-09T23:26:25.463Z,13.10
2019-05-09T23:31:36.448Z,12.96
2019-05-09T23:36:41.892Z,12.87
2019-05-09T23:41:47.358Z,12.94
2019-05-09T23:46:52.857Z,13.06
2019-05-09T23:51:58.319Z,13.18
2019-05-09T23:57:21.156Z,13.29
